createdAt,value
2018-12-04T15:55:15.976Z,295.77
2018-12-04T15:58:05.130Z,293.63
2018-12-04T16:00:53.142Z,324.50
2018-12-04T16:03:41.464Z,317.40
2018-12-04T16:06:30.516Z,316.47
2018-12-04T16:09:18.907Z,295.80
2018-12-04T16:12:07.189Z,305.67
2018-12-04T16:14:56.414Z,301.73
2018-12-04T16:17:45.053Z,312.23
2018-12-04T16:20:33.473Z,310.80
2018-12-04T16:23:21.738Z,314.17
2018-12-04T16:26:10.581Z,302.40
2018-12-04T16:28:58.871Z,299.27
2018-12-04T16:31:47.564Z,311.83
2018-12-04T16:34:35.879Z,310.57
2018-12-04T16:37:24.220Z,313.37
2018-12-04T16:40:11.898Z,302.23
2018-12-04T16:43:00.513Z,313.20
2018-12-04T16:45:48.857Z,294.77
2018-12-04T16:48:36.940Z,296.17
2018-12-04T16:51:25.269Z,281.70
2018-12-04T16:54:14.106Z,293.90
2018-12-04T16:57:02.154Z,306.97
2018-12-04T16:59:50.385Z,311.87
2018-12-04T17:02:38.901Z,323.57
2018-12-04T17:05:27.476Z,312.97
2018-12-04T17:08:16.464Z,311.13
2018-12-04T17:11:05.304Z,306.93
2018-12-04T17:13:53.304Z,334.90
2018-12-04T17:16:42.587Z,330.23
2018-12-04T17:19:30.581Z,322.93
2018-12-04T17:22:18.985Z,356.60
2018-12-04T17:25:08.274Z,326.83
2018-12-04T17:27:56.639Z,333.47
2018-12-04T17:30:44.602Z,323.50
2018-12-04T17:33:33.803Z,318.63
2018-12-04T17:36:21.353Z,320.03
2018-12-04T17:39:09.820Z,310.77
2018-12-04T17:41:57.975Z,352.20
2018-12-04T17:44:48.146Z,351.90
2018-12-04T17:47:36.197Z,303.17
2018-12-04T17:50:24.299Z,302.97
2018-12-04T17:53:13.946Z,308.10
2018-12-04T17:56:01.698Z,316.23
2018-12-04T17:58:50.079Z,301.43
2018-12-04T18:01:37.530Z,310.27
2018-12-04T18:04:26.915Z,322.07
2018-12-04T18:07:15.302Z,342.63
2018-12-04T18:10:07.114Z,327.33
2018-12-04T18:12:55.400Z,304.80
2018-12-04T18:15:43.720Z,319.00
2018-12-04T18:18:31.722Z,300.20
2018-12-04T18:21:20.027Z,325.50
2018-12-04T18:24:08.680Z,304.80
2018-12-04T18:26:57.562Z,304.47
2018-12-04T18:29:46.269Z,319.73
2018-12-04T18:32:34.538Z,314.73
2018-12-04T18:35:23.230Z,332.70
2018-12-04T18:38:11.713Z,351.30
2018-12-04T18:41:00.402Z,320.17
2018-12-04T18:43:49.244Z,334.43
2018-12-04T18:46:37.591Z,353.40
2018-12-04T18:49:26.581Z,320.97
2018-12-04T18:52:15.072Z,305.77
2018-12-04T18:55:03.392Z,295.23
2018-12-04T18:57:52.052Z,282.57
2018-12-04T19:00:40.759Z,294.47
2018-12-04T19:03:29.071Z,284.77
2018-12-04T19:06:17.946Z,277.47
2018-12-04T19:09:06.008Z,283.50
2018-12-04T19:11:54.497Z,271.57
2018-12-04T19:14:43.246Z,290.97
2018-12-04T19:17:31.977Z,267.67
2018-12-04T19:20:20.556Z,283.00
2018-12-04T19:23:08.846Z,291.87
2018-12-04T19:25:57.469Z,272.97
2018-12-04T19:28:46.111Z,282.37
2018-12-04T19:31:34.438Z,283.87
2018-12-04T19:34:23.063Z,284.77
2018-12-04T19:37:11.069Z,291.33
2018-12-04T19:39:58.746Z,264.77
2018-12-04T19:42:46.797Z,286.10
2018-12-04T19:45:36.162Z,287.30
2018-12-04T19:48:24.360Z,282.70
2018-12-04T19:51:12.737Z,311.87
2018-12-04T19:54:00.347Z,311.67
2018-12-04T19:56:48.363Z,309.23
2018-12-04T19:59:36.712Z,294.10
2018-12-04T20:02:25.632Z,279.40
2018-12-04T20:05:13.899Z,259.73
2018-12-04T20:08:02.852Z,266.30
2018-12-04T20:10:50.916Z,287.80
2018-12-04T20:13:39.708Z,273.53
2018-12-04T20:16:27.869Z,279.13
2018-12-04T20:19:16.453Z,291.23
2018-12-04T20:22:04.928Z,272.10
2018-12-04T20:24:53.800Z,265.13
2018-12-04T20:27:42.432Z,267.70
2018-12-04T20:30:31.134Z,263.43
2018-12-04T20:33:18.932Z,261.30
2018-12-04T20:36:07.737Z,265.77
2018-12-04T20:38:56.352Z,255.37
2018-12-04T20:41:44.664Z,265.30
2018-12-04T20:44:33.072Z,264.80
2018-12-04T20:47:21.700Z,272.17
2018-12-04T20:50:10.010Z,260.37
2018-12-04T20:52:58.291Z,267.93
2018-12-04T20:55:46.547Z,284.50
2018-12-04T20:58:35.226Z,273.63
2018-12-04T21:01:23.867Z,278.90
2018-12-04T21:04:12.282Z,275.30
2018-12-04T21:07:00.334Z,310.30
2018-12-04T21:09:48.582Z,282.93
2018-12-04T21:12:37.020Z,267.93
2018-12-04T21:15:25.786Z,292.30
2018-12-04T21:18:13.684Z,278.50
2018-12-04T21:21:01.543Z,295.03
2018-12-04T21:23:50.435Z,306.10
2018-12-04T21:26:38.950Z,275.77
2018-12-04T21:29:27.707Z,258.67
2018-12-04T21:32:16.138Z,275.53
2018-12-04T21:35:04.658Z,270.03
2018-12-04T21:37:53.003Z,259.63
2018-12-04T21:40:41.724Z,276.50
2018-12-04T21:43:30.265Z,303.00
2018-12-04T21:46:18.657Z,286.87
2018-12-04T21:49:06.707Z,280.43
2018-12-04T21:51:54.910Z,299.83
2018-12-04T21:54:43.869Z,301.97
2018-12-04T21:57:32.705Z,289.57
2018-12-04T22:00:21.896Z,276.47
2018-12-04T22:03:09.785Z,269.80
2018-12-04T22:05:59.111Z,279.60
2018-12-04T22:08:46.949Z,270.60
2018-12-04T22:11:36.110Z,251.90
2018-12-04T22:14:24.043Z,264.53
2018-12-04T22:17:12.679Z,277.53
2018-12-04T22:20:00.770Z,274.40
2018-12-04T22:22:49.699Z,266.13
2018-12-04T22:25:38.603Z,266.13
2018-12-04T22:28:26.579Z,246.60
2018-12-04T22:31:15.232Z,263.03
2018-12-04T22:34:04.205Z,277.50
2018-12-04T22:36:52.259Z,255.90
2018-12-04T22:39:39.961Z,246.27
2018-12-04T22:42:28.825Z,267.90
2018-12-04T22:45:17.294Z,279.10
2018-12-04T22:48:05.833Z,274.13
2018-12-04T22:50:54.078Z,269.63
2018-12-04T22:53:42.213Z,272.97
2018-12-04T22:56:30.763Z,250.70
2018-12-04T22:59:18.915Z,257.07
2018-12-04T23:02:08.023Z,270.87
2018-12-04T23:04:56.340Z,275.43
2018-12-04T23:07:44.583Z,275.23
2018-12-04T23:10:33.083Z,286.40
2018-12-04T23:13:21.983Z,270.23
2018-12-04T23:16:09.939Z,285.23
2018-12-04T23:18:58.760Z,279.23
2018-12-04T23:21:46.912Z,278.63
2018-12-04T23:24:35.454Z,269.73
2018-12-04T23:27:22.951Z,279.27
2018-12-04T23:30:10.268Z,284.50
2018-12-04T23:32:57.663Z,282.77
2018-12-04T23:35:45.879Z,270.50
2018-12-04T23:38:33.814Z,281.10
2018-12-04T23:41:21.630Z,281.40
2018-12-04T23:44:09.684Z,268.13
2018-12-04T23:46:57.174Z,275.83
2018-12-04T23:49:44.618Z,268.73
2018-12-04T23:52:32.373Z,260.90
2018-12-04T23:55:19.711Z,257.57
2018-12-04T23:58:07.343Z,266.23
